Terminal Aerodrome Forecast
Issued by NWS

Home | Current Version | Previous Version | Text Only | Print | Product List | Glossary On
Versions: 1 2 3 4 5 6 7 8 9 10 11 12 13 14 15 16 17 18 19 20
000
FTUS41 KPBZ 010300 AAA
TAFAGC
TAF AMD
KAGC 010304Z 0103/0124 07003KT P6SM SCT200
     FM010500 09005KT P6SM OVC080
     FM010900 12006KT 1 1/2SM -SN OVC015
     FM011300 18007KT 1SM -SN OVC006
     FM011800 20006KT 3SM -RASN OVC006=

USA.gov is the U.S. government's official web portal to all federal, state and local government web resources and services.